createdAt,value
2018-12-12T00:01:31.907Z,6.80
2018-12-12T00:04:03.365Z,6.79
2018-12-12T00:06:11.508Z,6.79
2018-12-12T00:08:17.586Z,6.81
2018-12-12T00:10:23.866Z,6.85
2018-12-12T00:12:31.099Z,6.87
2018-12-12T00:14:37.839Z,6.88
2018-12-12T00:16:44.092Z,6.88
2018-12-12T00:21:12.886Z,6.87
2018-12-12T00:23:18.957Z,6.86
2018-12-12T00:25:47.677Z,6.85
2018-12-12T00:28:16.612Z,6.84
2018-12-12T00:30:22.872Z,6.83
2018-12-12T00:32:28.963Z,6.81
2018-12-12T00:34:35.302Z,6.79
2018-12-12T00:36:42.278Z,6.79
2018-12-12T00:38:48.401Z,6.78
2018-12-12T00:40:55.752Z,6.77
2018-12-12T00:43:01.993Z,6.74
2018-12-12T00:45:08.221Z,6.77
2018-12-12T00:49:39.867Z,6.84
2018-12-12T00:51:46.189Z,6.88
2018-12-12T00:53:52.553Z,6.91
2018-12-12T00:55:58.665Z,6.94
2018-12-12T00:58:04.847Z,6.96
2018-12-12T01:00:33.783Z,6.97
2018-12-12T01:03:02.447Z,6.96
2018-12-12T01:05:08.889Z,6.93
2018-12-12T01:07:15.183Z,6.90
2018-12-12T01:11:44.433Z,6.93
2018-12-12T01:13:51.145Z,6.97
2018-12-12T01:15:57.392Z,6.99
2018-12-12T01:18:04.001Z,6.99
2018-12-12T01:20:10.348Z,7.02
2018-12-12T01:22:16.412Z,7.02
2018-12-12T01:24:45.049Z,7.02
2018-12-12T01:27:13.478Z,7.02
2018-12-12T01:29:19.649Z,7.04
2018-12-12T01:31:25.794Z,7.05
2018-12-12T01:33:31.906Z,7.04
2018-12-12T01:35:38.479Z,7.02
2018-12-12T01:37:45.007Z,7.03
2018-12-12T01:39:51.946Z,7.06
2018-12-12T01:42:20.788Z,7.07
2018-12-12T01:44:50.000Z,7.05
2018-12-12T01:46:57.193Z,7.01
2018-12-12T01:49:03.337Z,7.00
2018-12-12T01:51:10.024Z,7.00
2018-12-12T01:53:17.005Z,7.03
2018-12-12T01:55:23.347Z,7.05
2018-12-12T01:57:29.447Z,7.09
2018-12-12T01:59:35.608Z,7.09
2018-12-12T02:01:41.769Z,7.10
2018-12-12T02:03:48.118Z,7.13
2018-12-12T02:05:55.180Z,7.14
2018-12-12T02:08:01.415Z,7.16
2018-12-12T02:10:08.523Z,7.18
2018-12-12T02:12:14.720Z,7.14
2018-12-12T02:14:21.190Z,7.17
2018-12-12T02:16:27.435Z,7.17
2018-12-12T02:18:34.721Z,7.14
2018-12-12T02:20:40.937Z,7.12
2018-12-12T02:22:47.036Z,7.09
2018-12-12T02:24:53.378Z,7.06
2018-12-12T02:29:18.085Z,7.05
2018-12-12T02:31:24.560Z,7.07
2018-12-12T02:33:30.936Z,7.08
2018-12-12T02:35:37.115Z,7.09
2018-12-12T02:37:43.287Z,7.09
2018-12-12T02:39:49.429Z,7.09
2018-12-12T02:42:18.482Z,7.09
2018-12-12T02:44:46.746Z,7.10
2018-12-12T02:46:53.229Z,7.10
2018-12-12T02:48:59.431Z,7.12
2018-12-12T02:51:06.450Z,7.12
2018-12-12T02:53:13.022Z,7.14
2018-12-12T02:55:19.386Z,7.13
2018-12-12T02:57:25.552Z,7.13
2018-12-12T02:59:32.370Z,7.11
2018-12-12T03:01:38.481Z,7.11
2018-12-12T03:03:44.853Z,7.12
2018-12-12T03:05:52.049Z,7.12
2018-12-12T03:07:58.261Z,7.14
2018-12-12T03:10:04.717Z,7.14
2018-12-12T03:12:10.923Z,7.15
2018-12-12T03:14:17.155Z,7.16
2018-12-12T03:16:24.058Z,7.19
2018-12-12T03:18:30.936Z,7.21
2018-12-12T03:20:37.218Z,7.21
2018-12-12T03:22:43.621Z,7.24
2018-12-12T03:24:49.715Z,7.24
2018-12-12T03:26:55.906Z,7.24
2018-12-12T03:29:02.514Z,7.24
2018-12-12T03:31:08.624Z,7.24
2018-12-12T03:33:14.979Z,7.27
2018-12-12T03:35:21.823Z,7.27
2018-12-12T03:37:27.893Z,7.26
2018-12-12T03:39:34.935Z,7.21
2018-12-12T03:41:41.221Z,7.17
2018-12-12T03:43:47.368Z,7.15
2018-12-12T03:45:53.531Z,7.12
2018-12-12T03:47:59.665Z,7.13
2018-12-12T03:50:06.257Z,7.13
2018-12-12T03:52:13.281Z,7.14
2018-12-12T03:54:19.340Z,7.14
2018-12-12T03:56:25.666Z,7.12
2018-12-12T03:58:31.775Z,7.13
2018-12-12T04:00:37.949Z,7.15
2018-12-12T04:02:44.258Z,7.15
2018-12-12T04:05:13.465Z,7.15
2018-12-12T04:07:43.306Z,7.14
2018-12-12T04:09:49.578Z,7.13
2018-12-12T04:11:55.814Z,7.13
2018-12-12T04:14:02.506Z,7.12
2018-12-12T04:16:08.589Z,7.13
2018-12-12T04:18:14.781Z,7.12
2018-12-12T04:20:21.173Z,7.14
2018-12-12T04:22:27.319Z,7.13
2018-12-12T04:24:34.149Z,7.14
2018-12-12T04:26:41.497Z,7.12
2018-12-12T04:28:47.686Z,7.10
2018-12-12T04:30:54.752Z,7.10
2018-12-12T04:33:01.003Z,7.10
2018-12-12T04:35:07.734Z,7.05
2018-12-12T04:37:13.872Z,7.10
2018-12-12T04:39:20.338Z,7.11
2018-12-12T04:41:26.486Z,7.13
2018-12-12T04:43:33.852Z,7.13
2018-12-12T04:45:41.403Z,7.11
2018-12-12T04:47:47.516Z,7.11
2018-12-12T04:49:53.682Z,7.11
2018-12-12T04:52:00.055Z,7.12
2018-12-12T04:54:06.190Z,7.12
2018-12-12T04:56:14.270Z,7.13
2018-12-12T04:58:20.398Z,7.15
2018-12-12T05:00:26.495Z,7.17
2018-12-12T05:02:33.038Z,7.16
2018-12-12T05:04:39.996Z,7.16
2018-12-12T05:06:46.220Z,7.17
2018-12-12T05:08:52.507Z,7.17
2018-12-12T05:10:58.540Z,7.18
2018-12-12T05:13:04.644Z,7.17
2018-12-12T05:15:11.042Z,7.15
2018-12-12T05:17:17.257Z,7.12
2018-12-12T05:19:23.977Z,7.12
2018-12-12T05:21:30.362Z,7.11
2018-12-12T05:23:36.615Z,7.12
2018-12-12T05:25:42.711Z,7.13
2018-12-12T05:27:49.069Z,7.15
2018-12-12T05:29:55.289Z,7.15
2018-12-12T05:32:01.590Z,7.17
2018-12-12T05:34:07.730Z,7.15
2018-12-12T05:36:13.819Z,7.14
2018-12-12T05:38:20.121Z,7.14
2018-12-12T05:40:26.634Z,7.14
2018-12-12T05:42:34.985Z,7.16
2018-12-12T05:44:41.267Z,7.18
2018-12-12T05:46:47.385Z,7.18
2018-12-12T05:48:53.468Z,7.18
2018-12-12T05:50:59.683Z,7.19
2018-12-12T05:55:22.158Z,7.20
2018-12-12T05:57:28.816Z,7.23
2018-12-12T05:59:35.268Z,7.23
2018-12-12T06:01:41.436Z,7.26
2018-12-12T06:03:47.545Z,7.26
2018-12-12T06:06:15.985Z,7.26
2018-12-12T06:08:44.965Z,7.27
2018-12-12T06:10:51.087Z,7.26
2018-12-12T06:12:58.000Z,7.26
2018-12-12T06:15:04.424Z,7.22
2018-12-12T06:17:11.880Z,7.22
2018-12-12T06:19:18.115Z,7.22
2018-12-12T06:21:24.477Z,7.21
2018-12-12T06:23:30.689Z,7.21
2018-12-12T06:25:37.479Z,7.23
2018-12-12T06:27:43.539Z,7.23
2018-12-12T06:29:49.679Z,7.24
2018-12-12T06:31:55.863Z,7.26
2018-12-12T06:34:02.172Z,7.26
2018-12-12T06:36:08.285Z,7.27
2018-12-12T06:38:14.546Z,7.28
2018-12-12T06:40:20.771Z,7.27
2018-12-12T06:42:26.831Z,7.25
2018-12-12T06:44:33.626Z,7.24
2018-12-12T06:46:39.997Z,7.25
2018-12-12T06:48:46.205Z,7.24
2018-12-12T06:50:52.506Z,7.24
2018-12-12T06:52:59.817Z,7.22
2018-12-12T06:55:06.387Z,7.22
2018-12-12T06:57:12.731Z,7.21
2018-12-12T06:59:18.819Z,7.21
2018-12-12T07:01:47.685Z,7.22
2018-12-12T07:04:16.151Z,7.22
2018-12-12T07:06:22.560Z,7.22
2018-12-12T07:08:29.667Z,7.22
2018-12-12T07:10:35.835Z,7.23
2018-12-12T07:12:42.075Z,7.24
2018-12-12T07:14:48.275Z,7.25
2018-12-12T07:16:54.617Z,7.25
2018-12-12T07:19:01.002Z,7.26
2018-12-12T07:21:07.144Z,7.27
2018-12-12T07:23:14.346Z,7.24
2018-12-12T07:25:43.621Z,7.22
2018-12-12T07:28:12.663Z,7.19
2018-12-12T07:30:19.089Z,7.14
2018-12-12T07:34:43.237Z,7.02
2018-12-12T07:36:49.362Z,7.00
2018-12-12T07:38:55.578Z,6.96
2018-12-12T07:41:01.990Z,6.93
2018-12-12T07:43:41.026Z,6.92
2018-12-12T07:46:15.019Z,6.89
2018-12-12T07:48:23.178Z,6.88
2018-12-12T07:50:48.106Z,6.88
2018-12-12T07:53:11.206Z,6.88
2018-12-12T07:55:17.314Z,6.90
2018-12-12T07:57:23.515Z,6.92
2018-12-12T07:59:30.005Z,6.92
2018-12-12T08:01:36.510Z,6.95
2018-12-12T08:03:42.689Z,6.95
2018-12-12T08:05:48.915Z,6.97
2018-12-12T08:07:55.047Z,6.97
2018-12-12T08:10:03.215Z,6.96
2018-12-12T08:12:09.895Z,6.96
2018-12-12T08:14:16.433Z,6.96
2018-12-12T08:16:22.790Z,6.97
2018-12-12T08:18:29.043Z,6.99
2018-12-12T08:20:36.256Z,7.03
2018-12-12T08:22:42.560Z,7.04
2018-12-12T08:24:48.766Z,7.05
2018-12-12T08:26:55.026Z,7.06
2018-12-12T08:29:01.173Z,7.05
2018-12-12T08:31:07.557Z,7.04
2018-12-12T08:33:15.040Z,7.02
2018-12-12T08:35:21.250Z,7.02
2018-12-12T08:37:27.401Z,6.96
2018-12-12T08:39:33.497Z,6.99
2018-12-12T08:41:39.741Z,7.01
2018-12-12T08:43:46.297Z,7.03
2018-12-12T08:45:52.613Z,7.08
2018-12-12T08:47:58.733Z,7.09
2018-12-12T08:50:08.328Z,7.10
2018-12-12T08:54:32.268Z,7.11
2018-12-12T08:56:38.816Z,7.09
2018-12-12T08:58:45.730Z,7.10
2018-12-12T09:00:53.077Z,7.08
2018-12-12T09:02:59.124Z,7.06
2018-12-12T09:05:05.621Z,7.04
2018-12-12T09:07:11.877Z,7.03
2018-12-12T09:11:34.639Z,7.01
2018-12-12T09:13:42.160Z,7.00
2018-12-12T09:15:48.294Z,7.00
2018-12-12T09:17:55.338Z,6.98
2018-12-12T09:20:01.528Z,6.97
2018-12-12T09:22:08.942Z,6.96
2018-12-12T09:24:15.373Z,6.95
2018-12-12T09:26:21.539Z,6.97
2018-12-12T09:28:27.613Z,6.98
2018-12-12T09:30:37.372Z,6.98
2018-12-12T09:32:45.675Z,6.99
2018-12-12T09:35:15.140Z,7.00
2018-12-12T09:37:21.330Z,7.02
2018-12-12T09:39:27.438Z,7.06
2018-12-12T09:41:33.828Z,7.08
2018-12-12T09:43:40.467Z,7.10
2018-12-12T09:45:46.857Z,7.12
2018-12-12T09:47:53.207Z,7.13
2018-12-12T09:52:16.789Z,7.20
2018-12-12T09:54:25.121Z,7.21
2018-12-12T09:56:31.365Z,7.25
2018-12-12T09:58:37.505Z,7.29
2018-12-12T10:00:43.759Z,7.32
2018-12-12T10:02:50.214Z,7.35
2018-12-12T10:04:56.582Z,7.37
2018-12-12T10:07:02.934Z,7.41
2018-12-12T10:09:11.762Z,7.44
2018-12-12T10:11:18.169Z,7.45
2018-12-12T10:13:25.261Z,7.44
2018-12-12T10:15:31.434Z,7.42
2018-12-12T10:17:37.569Z,7.38
2018-12-12T10:19:43.963Z,7.37
2018-12-12T10:21:50.786Z,7.40
2018-12-12T10:23:56.993Z,7.45
2018-12-12T10:26:05.704Z,7.48
2018-12-12T10:28:12.162Z,7.53
2018-12-12T10:30:18.408Z,7.57
2018-12-12T10:32:24.676Z,7.61
2018-12-12T10:34:30.905Z,7.62
2018-12-12T10:38:54.930Z,7.73
2018-12-12T10:41:01.044Z,7.79
2018-12-12T10:43:07.856Z,7.86
2018-12-12T10:45:14.311Z,7.93
2018-12-12T10:47:20.513Z,8.00
2018-12-12T10:49:26.983Z,8.08
2018-12-12T10:51:33.107Z,8.14
2018-12-12T10:53:39.245Z,8.19
2018-12-12T10:55:45.321Z,8.24
2018-12-12T10:57:51.498Z,8.28
2018-12-12T10:59:57.662Z,8.29
2018-12-12T11:02:10.373Z,8.31
2018-12-12T11:04:18.886Z,8.33
2018-12-12T11:06:24.984Z,8.33
2018-12-12T11:08:32.454Z,8.37
2018-12-12T11:10:38.741Z,8.41
2018-12-12T11:12:44.981Z,8.43
2018-12-12T11:17:08.123Z,8.46
2018-12-12T11:19:14.440Z,8.46
2018-12-12T11:21:21.686Z,8.46
2018-12-12T11:23:28.013Z,8.45
2018-12-12T11:25:34.330Z,8.44
2018-12-12T11:27:41.115Z,8.43
2018-12-12T11:29:48.072Z,8.44
2018-12-12T11:31:54.314Z,8.43
2018-12-12T11:34:00.546Z,8.42
2018-12-12T11:36:07.150Z,8.41
2018-12-12T11:38:13.481Z,8.41
2018-12-12T11:40:19.770Z,8.43
2018-12-12T11:42:28.044Z,8.45
2018-12-12T11:44:34.224Z,8.47
2018-12-12T11:46:41.691Z,8.50
2018-12-12T11:48:48.029Z,8.54
2018-12-12T11:50:54.158Z,8.58
2018-12-12T11:53:00.342Z,8.64
2018-12-12T11:55:06.908Z,8.70
2018-12-12T11:57:13.969Z,8.75
2018-12-12T11:59:20.096Z,8.82
2018-12-12T12:01:26.420Z,8.88
2018-12-12T12:03:32.706Z,8.93
2018-12-12T12:05:39.105Z,8.98
2018-12-12T12:07:46.129Z,9.00
2018-12-12T12:09:52.389Z,9.11
2018-12-12T12:12:00.000Z,9.07
2018-12-12T12:14:08.452Z,9.06
2018-12-12T12:16:15.062Z,9.04
2018-12-12T12:18:21.241Z,9.04
2018-12-12T12:20:28.264Z,9.01
2018-12-12T12:22:34.718Z,9.01
2018-12-12T12:24:40.930Z,9.02
2018-12-12T12:26:47.304Z,9.08
2018-12-12T12:28:54.088Z,9.11
2018-12-12T12:31:00.269Z,9.15
2018-12-12T12:33:06.597Z,9.20
2018-12-12T12:35:14.323Z,9.25
2018-12-12T12:37:20.668Z,9.28
2018-12-12T12:39:28.066Z,9.32
2018-12-12T12:41:34.315Z,9.37
2018-12-12T12:43:40.502Z,9.42
2018-12-12T12:45:47.335Z,9.46
2018-12-12T12:47:53.957Z,9.49
2018-12-12T12:50:00.049Z,9.50
2018-12-12T12:52:06.684Z,9.45
2018-12-12T12:54:13.132Z,9.42
2018-12-12T12:58:37.821Z,9.35
2018-12-12T13:00:44.298Z,9.35
2018-12-12T13:02:50.550Z,9.37
2018-12-12T13:04:56.727Z,9.32
2018-12-12T13:07:02.943Z,9.40
2018-12-12T13:09:09.591Z,9.40
2018-12-12T13:11:15.756Z,9.42
2018-12-12T13:13:22.389Z,9.47
2018-12-12T13:15:29.122Z,9.49
2018-12-12T13:17:35.293Z,9.51
2018-12-12T13:19:41.506Z,9.53
2018-12-12T13:21:48.714Z,9.55
2018-12-12T13:23:55.010Z,9.56
2018-12-12T13:26:01.580Z,9.57
2018-12-12T13:28:07.699Z,9.58
2018-12-12T13:30:13.977Z,9.59
2018-12-12T13:32:20.945Z,9.58
2018-12-12T13:34:27.068Z,9.59
2018-12-12T13:36:33.290Z,9.58
2018-12-12T13:38:39.679Z,9.58
2018-12-12T13:40:45.754Z,9.58
2018-12-12T13:42:52.083Z,9.57
2018-12-12T13:44:58.526Z,9.56
2018-12-12T13:47:05.251Z,9.55
2018-12-12T13:49:12.762Z,9.54
2018-12-12T13:51:19.018Z,9.53
2018-12-12T13:53:25.647Z,9.54
2018-12-12T13:55:31.853Z,9.50
2018-12-12T13:57:39.264Z,9.45
2018-12-12T13:59:45.831Z,9.40
2018-12-12T14:01:52.186Z,9.34
2018-12-12T14:03:58.409Z,9.30
2018-12-12T14:06:05.317Z,9.25
2018-12-12T14:08:11.473Z,9.21
2018-12-12T14:10:17.678Z,9.20
2018-12-12T14:12:23.886Z,9.20
2018-12-12T14:14:30.176Z,9.20
2018-12-12T14:16:36.470Z,9.21
2018-12-12T14:18:43.483Z,9.21
2018-12-12T14:20:49.798Z,9.21
2018-12-12T14:22:55.991Z,9.23
2018-12-12T14:27:19.425Z,9.25
2018-12-12T14:29:25.783Z,9.29
2018-12-12T14:31:32.053Z,9.30
2018-12-12T14:33:38.605Z,9.31
2018-12-12T14:35:44.756Z,9.32
2018-12-12T14:40:09.373Z,9.35
2018-12-12T14:42:16.119Z,9.33
2018-12-12T14:44:22.455Z,9.28
2018-12-12T14:46:28.704Z,9.34
2018-12-12T14:48:34.877Z,9.34
2018-12-12T14:50:41.622Z,9.34
2018-12-12T14:52:47.829Z,9.34
2018-12-12T14:54:54.607Z,9.33
2018-12-12T14:59:19.399Z,9.33
2018-12-12T15:01:26.627Z,9.30
2018-12-12T15:03:33.476Z,9.28
2018-12-12T15:05:41.445Z,9.20
2018-12-12T15:07:48.041Z,9.21
2018-12-12T15:09:54.470Z,9.18
2018-12-12T15:12:01.882Z,9.14
2018-12-12T15:14:09.366Z,9.11
2018-12-12T15:16:15.852Z,9.08
2018-12-12T15:18:22.109Z,9.05
2018-12-12T15:20:28.252Z,9.03
2018-12-12T15:22:34.558Z,9.01
2018-12-12T15:24:40.851Z,9.01
2018-12-12T15:26:47.145Z,9.01
2018-12-12T15:28:54.232Z,9.01
2018-12-12T15:31:00.524Z,9.02
2018-12-12T15:33:08.625Z,9.02
2018-12-12T15:35:14.866Z,9.01
2018-12-12T15:37:21.343Z,8.99
2018-12-12T15:39:27.526Z,8.99
2018-12-12T15:41:34.338Z,8.97
2018-12-12T15:43:40.786Z,8.93
2018-12-12T15:45:47.147Z,8.90
2018-12-12T15:47:53.675Z,8.87
2018-12-12T15:50:00.715Z,8.84
2018-12-12T15:52:07.365Z,8.84
2018-12-12T15:54:13.545Z,8.82
2018-12-12T15:56:19.903Z,8.80
2018-12-12T15:58:26.243Z,8.81
2018-12-12T16:00:33.790Z,8.80
2018-12-12T16:02:40.584Z,8.79
2018-12-12T16:04:49.140Z,8.79
2018-12-12T16:06:55.536Z,8.79
2018-12-12T16:09:01.928Z,8.81
2018-12-12T16:11:10.233Z,8.78
2018-12-12T16:13:16.355Z,8.77
2018-12-12T16:15:22.683Z,8.75
2018-12-12T16:17:28.919Z,8.75
2018-12-12T16:19:35.390Z,8.75
2018-12-12T16:21:41.792Z,8.73
2018-12-12T16:23:48.119Z,8.67
2018-12-12T16:25:55.820Z,8.65
2018-12-12T16:28:02.199Z,8.63
2018-12-12T16:30:09.473Z,8.61
2018-12-12T16:32:15.873Z,8.59
2018-12-12T16:34:23.085Z,8.58
2018-12-12T16:36:29.861Z,8.55
2018-12-12T16:38:36.178Z,8.50
2018-12-12T16:46:43.359Z,8.30
2018-12-12T16:48:49.857Z,8.29
2018-12-12T16:50:56.129Z,8.30
2018-12-12T16:53:02.667Z,8.31
2018-12-12T16:55:09.350Z,8.33
2018-12-12T16:57:16.103Z,8.52
2018-12-12T16:59:23.248Z,8.47
2018-12-12T17:01:29.713Z,8.46
2018-12-12T17:03:36.813Z,8.47
2018-12-12T17:05:43.763Z,8.47
2018-12-12T17:07:49.999Z,8.45
2018-12-12T17:09:56.428Z,8.45
2018-12-12T17:12:16.770Z,8.45
2018-12-12T17:14:33.493Z,8.44
2018-12-12T17:16:40.975Z,8.43
2018-12-12T17:18:47.355Z,8.39
2018-12-12T17:20:54.348Z,8.39
2018-12-12T17:23:00.788Z,8.39
2018-12-12T17:25:07.222Z,8.39
2018-12-12T17:27:13.495Z,8.39
2018-12-12T17:29:19.726Z,8.39
2018-12-12T17:31:25.948Z,8.40
2018-12-12T17:33:32.094Z,8.40
2018-12-12T17:35:39.090Z,8.40
2018-12-12T17:37:47.630Z,8.39
2018-12-12T17:39:53.786Z,8.38
2018-12-12T17:42:00.086Z,8.34
2018-12-12T17:44:07.411Z,8.32
2018-12-12T17:46:14.572Z,8.31
2018-12-12T17:48:20.707Z,8.31
2018-12-12T17:50:26.968Z,8.31
2018-12-12T17:52:33.910Z,8.31
2018-12-12T17:54:42.197Z,8.37
2018-12-12T17:56:49.874Z,8.36
2018-12-12T17:58:56.085Z,8.33
2018-12-12T18:01:02.539Z,8.33
2018-12-12T18:03:11.293Z,8.32
2018-12-12T18:05:35.970Z,8.30
2018-12-12T18:07:44.148Z,8.29
2018-12-12T18:09:52.866Z,8.27
2018-12-12T18:12:02.047Z,8.26
2018-12-12T18:14:09.440Z,8.23
2018-12-12T18:16:19.150Z,8.23
2018-12-12T18:18:27.398Z,8.23
2018-12-12T18:20:34.909Z,8.24
2018-12-12T18:22:43.274Z,8.24
2018-12-12T18:24:51.659Z,8.26
2018-12-12T18:26:57.838Z,8.25
2018-12-12T18:29:04.809Z,8.26
2018-12-12T18:31:17.922Z,8.24
2018-12-12T18:33:29.647Z,8.24
2018-12-12T18:37:57.709Z,8.18
2018-12-12T18:40:04.243Z,8.18
2018-12-12T18:42:12.459Z,8.18
2018-12-12T18:44:32.643Z,8.18
2018-12-12T18:46:38.843Z,8.20
2018-12-12T18:48:45.151Z,8.18
2018-12-12T18:50:53.426Z,8.17
2018-12-12T18:53:09.504Z,8.15
2018-12-12T18:55:23.539Z,8.14
2018-12-12T18:57:30.707Z,8.14
2018-12-12T18:59:37.459Z,8.15
2018-12-12T19:01:43.880Z,8.17
2018-12-12T19:03:50.357Z,8.20
2018-12-12T19:05:56.691Z,8.23
2018-12-12T19:08:02.967Z,8.26
2018-12-12T19:10:17.612Z,8.26
2018-12-12T19:12:31.337Z,8.29
2018-12-12T19:14:39.792Z,8.31
2018-12-12T19:16:46.781Z,8.34
2018-12-12T19:18:53.205Z,8.37
2018-12-12T19:21:00.211Z,8.39
2018-12-12T19:23:07.414Z,8.42
2018-12-12T19:25:25.129Z,8.43
2018-12-12T19:27:38.827Z,8.44
2018-12-12T19:29:45.028Z,8.44
2018-12-12T19:31:51.239Z,8.43
2018-12-12T19:33:57.413Z,8.42
2018-12-12T19:36:03.668Z,8.39
2018-12-12T19:38:17.491Z,8.36
2018-12-12T19:40:31.360Z,8.32
2018-12-12T19:42:37.602Z,8.29
2018-12-12T19:44:43.892Z,8.26
2018-12-12T19:46:50.639Z,8.25
2018-12-12T19:48:56.880Z,8.24
2018-12-12T19:51:03.222Z,8.23
2018-12-12T19:53:16.759Z,8.22
2018-12-12T19:55:30.844Z,8.19
2018-12-12T19:57:37.424Z,8.15
2018-12-12T19:59:43.955Z,8.13
2018-12-12T20:01:50.854Z,8.09
2018-12-12T20:03:57.364Z,8.04
2018-12-12T20:06:03.927Z,8.02
2018-12-12T20:08:10.268Z,7.98
2018-12-12T20:10:16.609Z,7.96
2018-12-12T20:12:23.336Z,7.93
2018-12-12T20:14:29.612Z,7.91
2018-12-12T20:16:35.904Z,7.89
2018-12-12T20:18:42.323Z,7.87
2018-12-12T20:20:48.947Z,7.84
2018-12-12T20:22:55.267Z,7.82
2018-12-12T20:25:02.823Z,7.78
2018-12-12T20:27:16.908Z,7.75
2018-12-12T20:29:30.849Z,7.73
2018-12-12T20:31:37.365Z,7.71
2018-12-12T20:33:43.893Z,7.69
2018-12-12T20:35:51.351Z,7.68
2018-12-12T20:37:58.350Z,7.65
2018-12-12T20:40:05.460Z,7.63
2018-12-12T20:42:19.608Z,7.61
2018-12-12T20:44:34.486Z,7.59
2018-12-12T20:46:41.873Z,7.56
2018-12-12T20:48:48.665Z,7.54
2018-12-12T20:50:55.493Z,7.52
2018-12-12T20:53:07.989Z,7.50
2018-12-12T20:55:17.520Z,7.47
2018-12-12T20:57:24.472Z,7.46
2018-12-12T20:59:32.109Z,7.43
2018-12-12T21:01:38.479Z,7.42
2018-12-12T21:03:44.943Z,7.40
2018-12-12T21:05:54.569Z,7.39
2018-12-12T21:07:59.887Z,7.36
2018-12-12T21:10:06.793Z,7.33
2018-12-12T21:12:12.960Z,7.32
2018-12-12T21:14:19.764Z,7.27
2018-12-12T21:16:26.697Z,7.24
2018-12-12T21:18:32.877Z,7.21
2018-12-12T21:20:39.991Z,7.18
2018-12-12T21:22:46.236Z,7.16
2018-12-12T21:24:52.458Z,7.12
2018-12-12T21:27:00.701Z,7.09
2018-12-12T21:29:06.988Z,7.06
2018-12-12T21:31:13.449Z,7.02
2018-12-12T21:33:20.757Z,6.99
2018-12-12T21:35:27.229Z,6.95
2018-12-12T21:37:33.813Z,6.91
2018-12-12T21:39:40.071Z,6.86
2018-12-12T21:41:48.743Z,6.83
2018-12-12T21:43:55.318Z,6.79
2018-12-12T21:46:03.243Z,6.73
2018-12-12T21:48:09.931Z,6.69
2018-12-12T21:50:17.516Z,6.65
2018-12-12T21:52:24.970Z,6.59
2018-12-12T21:54:31.393Z,6.54
2018-12-12T21:56:37.692Z,6.50
2018-12-12T21:58:44.809Z,6.44
2018-12-12T22:00:51.111Z,6.40
2018-12-12T22:02:57.344Z,6.39
2018-12-12T22:05:03.480Z,6.36
2018-12-12T22:07:10.051Z,6.35
2018-12-12T22:09:16.570Z,6.34
2018-12-12T22:11:22.945Z,6.31
2018-12-12T22:13:29.177Z,6.30
2018-12-12T22:15:36.137Z,6.28
2018-12-12T22:17:44.168Z,6.25
2018-12-12T22:19:52.154Z,6.22
2018-12-12T22:21:58.472Z,6.20
2018-12-12T22:24:06.032Z,6.18
2018-12-12T22:26:13.013Z,6.15
2018-12-12T22:28:20.000Z,6.15
2018-12-12T22:30:26.821Z,6.15
2018-12-12T22:32:33.764Z,6.13
2018-12-12T22:34:39.903Z,6.12
2018-12-12T22:36:47.933Z,6.10
2018-12-12T22:38:54.419Z,6.10
2018-12-12T22:41:00.847Z,6.09
2018-12-12T22:43:07.021Z,6.07
2018-12-12T22:45:23.896Z,6.04
2018-12-12T22:47:32.818Z,6.01
2018-12-12T22:49:41.375Z,5.98
2018-12-12T22:51:47.917Z,5.93
2018-12-12T22:53:54.284Z,5.90
2018-12-12T22:56:00.851Z,5.87
2018-12-12T22:58:07.132Z,5.84
2018-12-12T23:00:18.725Z,5.80
2018-12-12T23:02:27.863Z,5.78
2018-12-12T23:04:34.480Z,5.74
2018-12-12T23:06:40.745Z,5.71
2018-12-12T23:08:47.376Z,5.68
2018-12-12T23:10:54.540Z,5.64
2018-12-12T23:13:00.853Z,5.60
2018-12-12T23:15:07.876Z,5.57
2018-12-12T23:17:14.670Z,5.53
2018-12-12T23:19:21.586Z,5.50
2018-12-12T23:21:28.141Z,5.47
2018-12-12T23:23:34.287Z,5.44
2018-12-12T23:25:44.545Z,5.42
2018-12-12T23:27:50.752Z,5.41
2018-12-12T23:29:58.432Z,5.40
2018-12-12T23:32:05.288Z,5.38
2018-12-12T23:34:11.501Z,5.35
2018-12-12T23:36:19.096Z,5.34
2018-12-12T23:38:26.432Z,5.32
2018-12-12T23:40:33.393Z,5.32
2018-12-12T23:42:40.634Z,5.30
2018-12-12T23:44:46.928Z,5.27
2018-12-12T23:46:53.147Z,5.28
2018-12-12T23:49:00.578Z,5.27
2018-12-12T23:51:06.780Z,5.27
2018-12-12T23:53:13.954Z,5.28
2018-12-12T23:55:20.153Z,5.29
2018-12-12T23:57:26.234Z,5.32
2018-12-12T23:59:33.469Z,5.34
